Time;durP1;ratioP1;P1;durP2;ratioP2;P2;SDS_P1;SDS_P2;PMS_P1;PMS_P2;Temp;Humidity;BMP_temperature;BMP_pressure;BME280_temperature;BME280_humidity;BME280_pressure;Samples;Min_cycle;Max_cycle;Signal;HPM_P1;HPM_P2
2024/04/26 00:00:39;;;;;;;0.00;0.00;;;;;;;8.77;81.58;98944.38;6296954;22;19999;-75
2024/04/26 00:03:04;;;;;;;0.00;0.00;;;;;;;8.78;81.85;98951.47;6255284;22;19999;-76
2024/04/26 00:05:30;;;;;;;0.00;0.00;;;;;;;8.78;81.98;98948.75;6256144;22;19999;-77
2024/04/26 00:07:55;;;;;;;0.00;0.00;;;;;;;8.69;82.11;98948.56;6293090;22;20421;-76
2024/04/26 00:10:21;;;;;;;0.00;0.00;;;;;;;8.72;82.20;98947.19;6376197;22;20003;-77
2024/04/26 00:12:46;;;;;;;0.00;0.00;;;;;;;8.67;82.17;98942.59;6292962;22;20414;-77
2024/04/26 00:15:12;;;;;;;0.00;0.00;;;;;;;8.68;82.14;98946.94;6290720;22;20681;-77
2024/04/26 00:17:37;;;;;;;0.00;0.00;;;;;;;8.64;82.62;98939.63;6336329;22;20003;-76
2024/04/26 00:20:04;;;;;;;0.00;0.00;;;;;;;8.68;82.91;98951.59;6334243;22;20310;-76
2024/04/26 00:22:32;;;;;;;0.00;0.00;;;;;;;8.60;82.97;98935.84;6334098;22;20091;-77
2024/04/26 00:24:57;;;;;;;0.00;0.00;;;;;;;8.64;82.96;98939.63;6335333;22;19999;-76
2024/04/26 00:27:22;;;;;;;0.00;0.00;;;;;;;8.56;83.36;98939.16;6333386;22;19987;-75
2024/04/26 00:29:55;;;;;;;0.00;0.00;;;;;;;8.60;83.40;98944.03;6292465;22;19999;-76
2024/04/26 00:32:21;;;;;;;0.00;0.00;;;;;;;8.52;83.50;98940.84;6377761;22;20007;-76
2024/04/26 00:34:46;;;;;;;0.00;0.00;;;;;;;8.47;83.65;98942.78;6254895;22;20043;-77
2024/04/26 00:37:14;;;;;;;0.00;0.00;;;;;;;8.52;84.23;98945.47;6329394;22;20303;-76
2024/04/26 00:39:40;;;;;;;0.00;0.00;;;;;;;8.31;84.18;98925.75;6295400;22;20010;-76
2024/04/26 00:42:06;;;;;;;0.00;0.00;;;;;;;8.42;84.23;98943.63;6332085;22;20023;-75
2024/04/26 00:44:34;;;;;;;0.00;0.00;;;;;;;8.38;84.38;98942.56;6375273;22;20031;-75
2024/04/26 00:47:00;;;;;;;0.00;0.00;;;;;;;8.36;84.60;98951.03;6334149;22;20075;-76
2024/04/26 00:49:26;;;;;;;0.00;0.00;;;;;;;8.27;84.57;98939.16;6291388;22;20003;-77
2024/04/26 00:51:52;;;;;;;0.10;0.10;;;;;;;8.26;84.79;98945.69;6295934;22;20014;-77
2024/04/26 00:54:22;;;;;;;0.00;0.00;;;;;;;8.09;84.73;98923.53;6292727;22;20000;-75
2024/04/26 00:56:54;;;;;;;0.00;0.00;;;;;;;8.16;85.27;98943.91;6334393;22;19999;-76
2024/04/26 00:59:19;;;;;;;0.00;0.00;;;;;;;8.11;85.57;98932.22;6333417;22;20425;-76
2024/04/26 01:01:45;;;;;;;0.00;0.00;;;;;;;8.07;85.33;98931.97;6332953;22;19999;-76
2024/04/26 01:04:10;;;;;;;0.00;0.00;;;;;;;8.12;85.62;98940.13;6291001;22;20330;-76
2024/04/26 01:06:36;;;;;;;0.00;0.00;;;;;;;8.12;85.65;98936.56;6291543;22;20315;-76
2024/04/26 01:09:01;;;;;;;0.00;0.00;;;;;;;8.11;85.92;98943.94;6294404;22;20079;-77
2024/04/26 01:11:27;;;;;;;0.00;0.00;;;;;;;8.03;85.92;98930.91;6252295;22;20003;-77
2024/04/26 01:14:02;;;;;;;0.00;0.00;;;;;;;7.99;86.35;98929.88;6289990;22;20419;-77
2024/04/26 01:16:27;;;;;;;0.00;0.00;;;;;;;8.01;86.24;98950.25;6331183;22;20031;-77
2024/04/26 01:18:53;;;;;;;0.00;0.00;;;;;;;7.97;86.88;98942.97;6333161;22;20276;-77
2024/04/26 01:21:21;;;;;;;0.00;0.00;;;;;;;7.93;86.68;98947.34;6255214;22;20003;-76
2024/04/26 01:23:56;;;;;;;0.00;0.00;;;;;;;7.89;86.98;98947.09;6332521;22;20003;-76
2024/04/26 01:26:21;;;;;;;0.10;0.10;;;;;;;7.79;87.17;98941.75;6333630;22;19995;-76
2024/04/26 01:28:47;;;;;;;0.00;0.00;;;;;;;7.81;86.99;98951.25;6335702;22;20418;-77
2024/04/26 01:31:12;;;;;;;0.00;0.00;;;;;;;7.49;87.27;98900.88;6292819;22;20100;-77
2024/04/26 01:33:41;;;;;;;0.00;0.00;;;;;;;7.50;87.42;98923.44;6294687;22;20000;-77
2024/04/26 01:36:09;;;;;;;0.00;0.00;;;;;;;7.48;87.68;98918.28;6335415;22;19995;-77
2024/04/26 01:38:39;;;;;;;0.00;0.00;;;;;;;7.47;87.98;98924.81;6295482;22;20011;-77
2024/04/26 01:41:05;;;;;;;0.00;0.00;;;;;;;7.46;88.00;98934.09;6258672;22;20079;-79
2024/04/26 01:43:30;;;;;;;0.00;0.00;;;;;;;7.31;88.09;98915.94;6339401;22;20007;-78
2024/04/26 01:45:56;;;;;;;0.08;0.08;;;;;;;7.39;88.11;98930.88;6305492;22;20006;-76
2024/04/26 01:48:22;;;;;;;0.00;0.00;;;;;;;7.31;88.25;98926.81;6346667;22;20014;-76
2024/04/26 01:50:48;;;;;;;0.00;0.00;;;;;;;7.24;88.44;98914.63;6379440;22;20003;-76
2024/04/26 01:53:13;;;;;;;0.00;0.00;;;;;;;7.19;88.81;98914.66;6335318;22;20292;-78
2024/04/26 01:55:38;;;;;;;0.00;0.00;;;;;;;7.22;89.06;98923.06;6254822;22;20412;-78
2024/04/26 01:58:04;;;;;;;0.00;0.00;;;;;;;7.18;88.92;98932.06;6332144;22;20004;-78
2024/04/26 02:00:29;;;;;;;0.00;0.00;;;;;;;7.12;89.21;98932.09;6338436;22;20004;-76
2024/04/26 02:02:57;;;;;;;0.00;0.00;;;;;;;6.95;89.40;98918.88;6335489;22;20010;-76
2024/04/26 02:05:30;;;;;;;0.00;0.00;;;;;;;6.96;89.32;98908.78;6295650;22;20006;-76
2024/04/26 02:07:56;;;;;;;0.00;0.00;;;;;;;6.92;89.61;98902.28;6377675;22;20419;-76
2024/04/26 02:10:21;;;;;;;0.00;0.00;;;;;;;6.91;89.40;98912.34;6293916;22;20003;-77
2024/04/26 02:12:54;;;;;;;0.00;0.00;;;;;;;6.94;90.09;98911.00;6257958;22;20014;-76
2024/04/26 02:15:22;;;;;;;0.00;0.00;;;;;;;6.84;89.90;98916.47;6335477;22;20091;-76
2024/04/26 02:17:47;;;;;;;0.00;0.00;;;;;;;6.62;90.04;98893.19;6337897;22;19999;-78
2024/04/26 02:20:18;;;;;;;0.10;0.10;;;;;;;6.66;90.45;98909.72;6376969;22;20048;-76
2024/04/26 02:22:43;;;;;;;0.00;0.00;;;;;;;6.55;90.57;98906.25;6293566;22;20003;-76
2024/04/26 02:25:09;;;;;;;0.00;0.00;;;;;;;6.66;90.78;98921.44;6333883;22;20010;-77
2024/04/26 02:27:34;;;;;;;0.00;0.00;;;;;;;6.59;90.78;98920.91;6295092;22;20048;-77
2024/04/26 02:30:02;;;;;;;0.00;0.00;;;;;;;6.56;90.73;98922.25;6377560;22;19995;-76
2024/04/26 02:32:40;;;;;;;0.00;0.00;;;;;;;6.50;91.07;98911.69;6293937;22;20048;-76
2024/04/26 02:35:07;;;;;;;0.00;0.00;;;;;;;6.56;90.74;98927.69;6374823;22;20014;-76
2024/04/26 02:37:32;;;;;;;0.00;0.00;;;;;;;6.57;91.13;98928.50;6332556;22;20003;-76
2024/04/26 02:39:58;;;;;;;0.05;0.05;;;;;;;6.50;90.82;98923.38;6253827;22;19991;-76
2024/04/26 02:42:26;;;;;;;0.00;0.00;;;;;;;6.36;91.40;98914.97;6334976;22;20017;-75
2024/04/26 02:44:51;;;;;;;0.00;0.00;;;;;;;6.43;91.54;98931.78;6334791;22;20430;-76
2024/04/26 02:47:17;;;;;;;0.00;0.00;;;;;;;6.34;91.84;98925.31;6334950;22;19991;-78
2024/04/26 02:49:52;;;;;;;;;;;;;;;;;;;;;
2024/04/26 02:52:21;;;;;;;0.10;0.10;;;;;;;6.16;92.27;98912.31;6377144;22;20014;-76
2024/04/26 02:54:47;;;;;;;0.10;0.10;;;;;;;6.24;92.50;98931.56;6294751;22;20074;-75
2024/04/26 02:57:12;;;;;;;0.10;0.10;;;;;;;6.16;92.34;98918.53;6333316;22;20010;-76
2024/04/26 02:59:38;;;;;;;0.00;0.00;;;;;;;6.18;92.47;98915.56;6336529;22;20006;-76
2024/04/26 03:02:03;;;;;;;0.00;0.00;;;;;;;6.14;92.31;98904.44;6292400;22;20000;-76
2024/04/26 03:04:29;;;;;;;0.00;0.00;;;;;;;6.24;92.57;98920.69;6295214;22;20013;-75
2024/04/26 03:06:54;;;;;;;0.00;0.00;;;;;;;6.31;92.42;98934.00;6333079;22;19995;-75
2024/04/26 03:09:19;;;;;;;0.10;0.10;;;;;;;6.24;92.30;98917.19;6291944;22;19999;-76
2024/04/26 03:11:59;;;;;;;0.00;0.00;;;;;;;6.27;92.28;98924.78;6291443;22;20003;-76
2024/04/26 03:14:24;;;;;;;0.00;0.00;;;;;;;6.29;92.34;98923.41;6369915;22;19999;-76
2024/04/26 03:16:52;;;;;;;0.00;0.00;;;;;;;6.22;92.34;98913.91;6333865;22;20014;-76
2024/04/26 03:19:18;;;;;;;0.00;0.00;;;;;;;6.19;92.37;98914.47;6334732;22;20003;-75
2024/04/26 03:21:44;;;;;;;0.00;0.00;;;;;;;6.18;92.06;98915.56;6333832;22;20074;-75
2024/04/26 03:24:12;;;;;;;0.00;0.00;;;;;;;6.13;92.53;98912.84;6376490;22;19999;-74
2024/04/26 03:26:37;;;;;;;0.00;0.00;;;;;;;6.21;92.39;98931.31;6293975;22;20003;-75
2024/04/26 03:29:03;;;;;;;0.00;0.00;;;;;;;6.16;92.48;98921.25;6292262;22;20638;-75
2024/04/26 03:31:29;;;;;;;0.10;0.10;;;;;;;6.17;92.33;98919.38;6334165;22;20071;-76
2024/04/26 03:33:55;;;;;;;0.00;0.00;;;;;;;6.38;92.15;98948.13;6375576;22;19999;-76
2024/04/26 03:36:21;;;;;;;0.00;0.00;;;;;;;6.21;92.21;98915.03;6294017;22;20014;-76
2024/04/26 03:38:47;;;;;;;0.00;0.00;;;;;;;6.32;92.29;98924.75;6375259;22;19992;-76
2024/04/26 03:41:12;;;;;;;0.00;0.00;;;;;;;6.29;91.96;98917.16;6293509;22;19999;-77
2024/04/26 03:43:38;;;;;;;0.00;0.00;;;;;;;6.38;92.25;98929.09;6334552;22;19999;-78
2024/04/26 03:46:03;;;;;;;0.00;0.00;;;;;;;6.45;91.80;98936.94;6334179;22;19996;-77
2024/04/26 03:48:29;;;;;;;0.00;0.00;;;;;;;6.36;91.88;98922.31;6294748;22;20003;-78
2024/04/26 03:50:57;;;;;;;0.00;0.00;;;;;;;6.37;91.79;98915.81;6293317;22;20003;-75
2024/04/26 03:53:33;;;;;;;0.00;0.00;;;;;;;6.27;91.76;98909.28;6293370;22;20411;-77
2024/04/26 03:56:22;;;;;;;0.00;0.00;;;;;;;6.52;92.16;98948.34;6293027;22;20069;-76
2024/04/26 03:59:05;;;;;;;0.00;0.00;;;;;;;6.20;92.04;98892.47;6354427;22;19999;-77
2024/04/26 04:01:40;;;;;;;;;;;;;;;;;;;;;
2024/04/26 04:04:08;;;;;;;0.00;0.00;;;;;;;6.29;91.93;98918.00;6376718;22;20014;-76
2024/04/26 04:06:41;;;;;;;0.00;0.00;;;;;;;6.39;92.00;98933.44;6292100;22;20085;-76
2024/04/26 04:09:06;;;;;;;0.00;0.00;;;;;;;6.37;91.88;98923.94;6296774;22;20000;-76
2024/04/26 04:11:35;;;;;;;0.00;0.00;;;;;;;6.35;92.14;98929.66;6331563;22;20049;-76
2024/04/26 04:14:04;;;;;;;0.00;0.00;;;;;;;6.41;91.91;98942.13;6331323;22;20364;-77
2024/04/26 04:16:39;;;;;;;;;;;;;;;;;;;;;
2024/04/26 04:19:05;;;;;;;0.00;0.00;;;;;;;6.35;92.06;98942.41;6376642;22;20006;-76
2024/04/26 04:21:39;;;;;;;0.00;0.00;;;;;;;6.27;92.26;98933.72;6292564;22;20019;-76
2024/04/26 04:24:07;;;;;;;;;;;;;;;6.32;92.26;98938.31;6298332;22;20007;-76
2024/04/26 04:26:36;;;;;;;0.00;0.00;;;;;;;6.07;92.15;98904.69;6375995;22;19944;-77
2024/04/26 04:29:09;;;;;;;0.03;0.03;;;;;;;6.27;92.05;98946.50;6294789;22;20027;-77
2024/04/26 04:31:37;;;;;;;0.00;0.00;;;;;;;6.24;92.38;98941.63;6294707;22;20078;-76
2024/04/26 04:34:02;;;;;;;0.00;0.00;;;;;;;5.98;92.12;98902.84;6334820;22;20040;-76
2024/04/26 04:36:30;;;;;;;0.10;0.10;;;;;;;6.13;92.28;98923.72;6375564;22;20003;-79
2024/04/26 04:39:00;;;;;;;0.00;0.00;;;;;;;6.22;92.32;98944.59;6295663;22;20006;-77
2024/04/26 04:41:27;;;;;;;0.00;0.00;;;;;;;6.17;92.21;98931.03;6333518;22;20415;-77
2024/04/26 04:43:53;;;;;;;0.00;0.00;;;;;;;6.24;92.21;98936.19;6293707;22;20007;-77
2024/04/26 04:46:18;;;;;;;0.10;0.10;;;;;;;6.10;92.39;98914.19;6292294;22;20307;-76
2024/04/26 04:48:44;;;;;;;0.00;0.00;;;;;;;6.13;92.10;98918.28;6291440;22;19995;-78
2024/04/26 04:51:12;;;;;;;0.00;0.00;;;;;;;6.22;92.20;98932.91;6333632;22;19991;-77
2024/04/26 04:53:42;;;;;;;0.00;0.00;;;;;;;6.31;92.25;98953.00;6332452;22;20014;-76
2024/04/26 04:56:10;;;;;;;0.00;0.00;;;;;;;6.31;92.04;98955.72;6257064;22;19999;-78
2024/04/26 04:58:36;;;;;;;0.00;0.00;;;;;;;6.27;92.20;98941.06;6296567;22;20004;-77
2024/04/26 05:01:01;;;;;;;0.00;0.00;;;;;;;6.23;92.10;98935.34;6294881;22;20112;-77
2024/04/26 05:03:32;;;;;;;0.00;0.00;;;;;;;6.04;92.09;98904.44;6335238;22;19999;-76
2024/04/26 05:05:57;;;;;;;0.00;0.00;;;;;;;6.29;91.95;98944.31;6380638;22;20007;-77
2024/04/26 05:08:23;;;;;;;0.00;0.00;;;;;;;6.38;92.10;98958.97;6268193;22;20013;-76
2024/04/26 05:10:50;;;;;;;0.00;0.00;;;;;;;6.32;92.20;98949.19;6336521;22;20010;-77
2024/04/26 05:13:18;;;;;;;0.00;0.00;;;;;;;6.38;92.02;98958.13;6339224;22;20018;-76
2024/04/26 05:15:46;;;;;;;0.00;0.00;;;;;;;6.36;91.89;98955.69;6291106;22;20011;-76
2024/04/26 05:18:14;;;;;;;0.00;0.00;;;;;;;6.34;91.87;98949.75;6337144;22;19988;-78
2024/04/26 05:20:42;;;;;;;0.00;0.00;;;;;;;6.35;91.85;98940.53;6334562;22;20003;-77
2024/04/26 05:23:08;;;;;;;0.00;0.00;;;;;;;6.33;91.89;98939.97;6253492;22;20011;-78
2024/04/26 05:25:51;;;;;;;0.00;0.00;;;;;;;6.37;91.52;98946.47;6335623;22;20121;-77
2024/04/26 05:28:17;;;;;;;0.00;0.00;;;;;;;6.39;91.52;98941.56;6377065;22;20031;-76
2024/04/26 05:30:45;;;;;;;0.00;0.00;;;;;;;6.58;91.51;98965.44;6336987;22;20013;-74
2024/04/26 05:33:10;;;;;;;0.00;0.00;;;;;;;6.67;91.11;98974.66;6330870;22;19999;-74
2024/04/26 05:35:38;;;;;;;0.00;0.00;;;;;;;6.65;90.94;98965.97;6257071;22;20014;-76
2024/04/26 05:38:04;;;;;;;0.00;0.00;;;;;;;6.71;90.90;98967.56;6292912;22;20302;-77
2024/04/26 05:40:29;;;;;;;0.00;0.00;;;;;;;6.74;90.79;98972.44;6331677;22;20003;-76
2024/04/26 05:42:55;;;;;;;0.05;0.05;;;;;;;6.78;90.27;98973.53;6332604;22;20304;-79
2024/04/26 05:45:20;;;;;;;0.00;0.00;;;;;;;6.91;90.06;98990.34;6289538;22;20013;-75
2024/04/26 05:48:04;;;;;;;0.00;0.00;;;;;;;6.83;90.10;98972.69;6336058;22;19999;-76
2024/04/26 05:50:29;;;;;;;0.00;0.00;;;;;;;6.82;89.62;98969.19;6333227;22;20010;-77
2024/04/26 05:52:55;;;;;;;0.00;0.00;;;;;;;6.99;89.89;98978.91;6335962;22;20003;-75
2024/04/26 05:55:20;;;;;;;0.00;0.00;;;;;;;7.06;89.33;98994.91;6290460;22;20433;-76
2024/04/26 05:57:45;;;;;;;0.00;0.00;;;;;;;7.04;89.37;98987.03;6293959;22;20017;-76
2024/04/26 06:00:11;;;;;;;0.00;0.00;;;;;;;7.22;88.77;99009.28;6331415;22;19999;-76
2024/04/26 06:02:47;;;;;;;0.00;0.00;;;;;;;7.20;88.70;98992.41;6329609;22;20010;-76
2024/04/26 06:05:13;;;;;;;0.00;0.00;;;;;;;7.30;88.53;99005.94;6331455;22;20006;-75
2024/04/26 06:07:39;;;;;;;0.00;0.00;;;;;;;7.38;88.48;99012.75;6372059;22;20085;-73
2024/04/26 06:13:09;;;;;;;0.00;0.00;;;;;;;7.35;87.98;98989.63;6334603;22;20022;-77
2024/04/26 06:15:36;;;;;;;0.00;0.00;;;;;;;7.59;87.81;99008.00;6330893;22;20027;-74
2024/04/26 06:18:19;;;;;;;0.00;0.00;;;;;;;7.45;87.28;98975.16;6329926;22;20027;-74
2024/04/26 06:20:59;;;;;;;0.00;0.00;;;;;;;7.86;87.20;99026.59;6334777;22;20361;-75
2024/04/26 06:23:24;;;;;;;0.10;0.10;;;;;;;7.93;86.65;99029.84;6332756;22;19999;-74
2024/04/26 06:25:50;;;;;;;0.00;0.00;;;;;;;7.99;86.53;99025.16;6290377;22;20063;-74
2024/04/26 06:28:17;;;;;;;0.00;0.00;;;;;;;8.03;86.42;99032.47;6371985;22;20001;-75
2024/04/26 06:30:43;;;;;;;0.00;0.00;;;;;;;8.05;85.69;99015.84;6376788;22;19999;-76
2024/04/26 06:33:08;;;;;;;0.00;0.00;;;;;;;8.15;85.59;99023.94;6373276;22;20418;-74
2024/04/26 06:35:34;;;;;;;0.00;0.00;;;;;;;8.18;85.29;99028.81;6291506;22;20035;-76
2024/04/26 06:37:59;;;;;;;0.00;0.00;;;;;;;8.21;84.99;99030.16;6329715;22;20083;-75
2024/04/26 06:40:26;;;;;;;0.00;0.00;;;;;;;8.30;84.65;99035.81;6327321;22;20081;-75
2024/04/26 06:42:51;;;;;;;0.00;0.00;;;;;;;8.42;84.38;99030.81;6289302;22;20013;-75
2024/04/26 06:45:17;;;;;;;0.00;0.00;;;;;;;8.43;83.96;99021.53;6289918;22;20000;-74
2024/04/26 06:47:42;;;;;;;0.00;0.00;;;;;;;8.52;83.72;99008.16;6376283;22;20419;-74
2024/04/26 06:50:08;;;;;;;0.00;0.00;;;;;;;8.81;83.13;99027.19;6372246;22;19999;-73
2024/04/26 06:52:33;;;;;;;0.00;0.00;;;;;;;8.91;82.42;99021.66;6376228;22;20000;-73
2024/04/26 06:54:59;;;;;;;0.10;0.10;;;;;;;9.24;81.37;99035.47;6331616;22;20014;-74
2024/04/26 06:57:34;;;;;;;0.00;0.00;;;;;;;9.48;80.50;99031.91;6332699;22;20003;-74
2024/04/26 07:00:02;;;;;;;0.00;0.00;;;;;;;9.65;79.68;99022.38;6296233;22;20014;-74
2024/04/26 07:02:28;;;;;;;0.00;0.00;;;;;;;9.88;78.35;99032.41;6292785;22;20010;-73
2024/04/26 07:04:53;;;;;;;0.00;0.00;;;;;;;10.00;77.43;99042.09;6292311;22;19999;-75
2024/04/26 07:07:18;;;;;;;0.00;0.00;;;;;;;10.03;76.83;99038.78;6329460;22;20399;-75
2024/04/26 07:09:44;;;;;;;0.10;0.10;;;;;;;9.81;76.19;99031.97;6295133;22;20078;-75
2024/04/26 07:12:11;;;;;;;0.00;0.00;;;;;;;9.65;76.02;99044.22;6375245;22;20086;-75
2024/04/26 07:14:37;;;;;;;0.10;0.10;;;;;;;9.56;76.53;99058.53;6253763;22;20018;-75
2024/04/26 07:17:02;;;;;;;0.00;0.00;;;;;;;9.48;76.49;99039.28;6292416;22;19999;-77
2024/04/26 07:19:28;;;;;;;0.00;0.00;;;;;;;9.44;76.79;99055.41;6373889;22;20000;-76
2024/04/26 07:21:57;;;;;;;0.00;0.00;;;;;;;9.42;76.93;99046.72;6375960;22;20418;-75
2024/04/26 07:24:23;;;;;;;0.00;0.00;;;;;;;9.43;77.06;99045.59;6374272;22;19999;-76
2024/04/26 07:26:48;;;;;;;0.00;0.00;;;;;;;9.46;76.82;99042.28;6250789;22;20820;-75
2024/04/26 07:29:14;;;;;;;0.00;0.00;;;;;;;9.55;76.68;99046.00;6291305;22;20015;-74
2024/04/26 07:31:41;;;;;;;0.00;0.00;;;;;;;9.72;76.20;99055.59;6290666;22;20000;-76
2024/04/26 07:34:14;;;;;;;0.00;0.00;;;;;;;9.91;75.71;99042.75;6377655;22;20096;-76
2024/04/26 07:36:46;;;;;;;0.00;0.00;;;;;;;10.17;74.59;99039.66;6372128;22;19999;-74
2024/04/26 07:39:13;;;;;;;0.00;0.00;;;;;;;10.50;73.50;99052.53;6377400;22;20018;-76
2024/04/26 07:41:39;;;;;;;0.00;0.00;;;;;;;10.79;72.49;99044.94;6331583;22;20019;-75
2024/04/26 07:44:10;;;;;;;0.10;0.10;;;;;;;11.14;71.43;99044.56;6292165;22;20004;-76
2024/04/26 07:46:35;;;;;;;0.00;0.00;;;;;;;11.67;70.09;99062.38;6332517;22;20078;-75
2024/04/26 07:49:01;;;;;;;0.00;0.00;;;;;;;12.03;68.68;99065.19;6333141;22;20392;-74
2024/04/26 07:51:27;;;;;;;0.00;0.00;;;;;;;12.31;67.28;99056.03;6376279;22;19999;-75
2024/04/26 07:53:52;;;;;;;0.08;0.08;;;;;;;12.53;66.30;99055.25;6369794;22;20013;-74
2024/04/26 07:56:18;;;;;;;0.10;0.10;;;;;;;12.84;65.49;99077.19;6337820;22;19995;-75
2024/04/26 07:58:43;;;;;;;0.00;0.00;;;;;;;12.90;64.50;99055.94;6376488;22;20334;-75
2024/04/26 08:01:13;;;;;;;0.08;0.08;;;;;;;13.18;63.79;99080.44;6378796;22;20003;-74
2024/04/26 08:03:38;;;;;;;0.00;0.00;;;;;;;13.39;63.26;99067.81;6380810;22;19995;-75
2024/04/26 08:06:04;;;;;;;0.10;0.10;;;;;;;13.65;62.72;99072.53;6386161;22;20409;-76
2024/04/26 08:08:29;;;;;;;0.00;0.00;;;;;;;13.81;61.54;99063.88;6337835;22;19999;-76
2024/04/26 08:10:57;;;;;;;0.00;0.00;;;;;;;13.89;60.98;99061.13;6294504;22;20411;-75
2024/04/26 08:13:25;;;;;;;0.10;0.10;;;;;;;13.76;59.32;99068.38;6378528;22;20031;-74
2024/04/26 08:15:51;;;;;;;0.00;0.00;;;;;;;13.68;59.08;99060.94;6295012;22;20003;-75
2024/04/26 08:18:16;;;;;;;0.00;0.00;;;;;;;13.94;59.33;99079.38;6296859;22;20011;-76
2024/04/26 08:20:42;;;;;;;0.00;0.00;;;;;;;13.95;58.50;99081.81;6338227;22;20015;-75
2024/04/26 08:23:07;;;;;;;0.00;0.00;;;;;;;13.86;58.07;99077.47;6332738;22;20003;-76
2024/04/26 08:25:33;;;;;;;0.00;0.00;;;;;;;13.84;58.19;99068.72;6294324;22;19999;-76
2024/04/26 08:27:58;;;;;;;0.00;0.00;;;;;;;13.91;58.59;99086.34;6294339;22;20006;-75
2024/04/26 08:30:26;;;;;;;0.00;0.00;;;;;;;13.96;58.58;99088.16;6292842;22;20010;-76
2024/04/26 08:32:51;;;;;;;0.00;0.00;;;;;;;13.97;57.86;99089.75;6334845;22;20311;-74
2024/04/26 08:35:17;;;;;;;0.00;0.00;;;;;;;14.14;57.55;99077.97;6293254;22;20027;-75
2024/04/26 08:37:42;;;;;;;0.00;0.00;;;;;;;14.60;57.04;99089.41;6334721;22;20010;-76
2024/04/26 08:40:08;;;;;;;0.00;0.00;;;;;;;15.18;55.89;99082.50;6333842;22;20003;-76
2024/04/26 08:42:34;;;;;;;0.00;0.00;;;;;;;15.67;53.95;99086.84;6336124;22;20003;-76
2024/04/26 08:45:00;;;;;;;0.00;0.00;;;;;;;16.08;52.92;99088.06;6334957;22;20031;-74
2024/04/26 08:47:28;;;;;;;0.00;0.00;;;;;;;16.48;51.94;99087.56;6332809;22;20003;-75
2024/04/26 08:49:56;;;;;;;0.00;0.00;;;;;;;16.51;50.30;99075.84;6333188;22;19999;-74
2024/04/26 08:52:23;;;;;;;0.00;0.00;;;;;;;16.34;49.17;99092.56;6376587;22;20003;-77
2024/04/26 08:54:48;;;;;;;0.00;0.00;;;;;;;16.16;49.45;99086.38;6334217;22;20046;-77
2024/04/26 08:57:15;;;;;;;0.00;0.00;;;;;;;16.01;49.42;99079.53;6334283;22;20956;-75
2024/04/26 08:59:48;;;;;;;0.00;0.00;;;;;;;15.75;49.01;99080.47;6380450;22;20014;-75
2024/04/26 09:02:17;;;;;;;0.00;0.00;;;;;;;15.46;49.43;99084.03;6374902;22;20014;-76
2024/04/26 09:04:44;;;;;;;0.00;0.00;;;;;;;15.25;50.04;99086.72;6336840;22;20014;-74
2024/04/26 09:07:10;;;;;;;0.00;0.00;;;;;;;14.94;50.02;99090.53;6373229;22;19995;-76
2024/04/26 09:09:49;;;;;;;0.00;0.00;;;;;;;14.63;50.31;99072.28;6297530;22;19999;-75
2024/04/26 09:12:17;;;;;;;0.00;0.00;;;;;;;14.92;50.96;99084.53;6330751;22;19999;-76
2024/04/26 09:14:43;;;;;;;0.00;0.00;;;;;;;14.95;50.31;99083.88;6296210;22;20000;-77
2024/04/26 09:17:11;;;;;;;0.00;0.00;;;;;;;15.21;50.50;99094.03;6373513;22;20014;-76
2024/04/26 09:19:38;;;;;;;0.00;0.00;;;;;;;15.26;49.54;99093.81;6335409;22;20039;-75
2024/04/26 09:22:05;;;;;;;0.00;0.00;;;;;;;15.31;49.66;99080.69;6333986;22;19999;-76
2024/04/26 09:24:31;;;;;;;0.00;0.00;;;;;;;15.86;48.94;99101.03;6376130;22;20014;-76
2024/04/26 09:26:57;;;;;;;0.00;0.00;;;;;;;16.68;47.64;99079.63;6335530;22;19999;-76
2024/04/26 09:29:29;;;;;;;0.00;0.00;;;;;;;17.83;45.72;99097.28;6378184;22;19999;-75
2024/04/26 09:32:02;;;;;;;0.00;0.00;;;;;;;18.63;44.43;99098.50;6295765;22;20051;-76
2024/04/26 09:34:32;;;;;;;0.00;0.00;;;;;;;18.94;43.39;99110.03;6335616;22;20797;-76
2024/04/26 09:37:02;;;;;;;0.00;0.00;;;;;;;18.71;42.15;99076.56;6378213;22;20039;-76
2024/04/26 09:39:29;;;;;;;0.00;0.00;;;;;;;18.82;41.79;99099.78;6332637;22;20284;-75
2024/04/26 09:41:57;;;;;;;0.00;0.00;;;;;;;19.38;42.04;99093.38;6375090;22;20003;-78
2024/04/26 09:44:23;;;;;;;0.00;0.00;;;;;;;20.62;40.58;99100.50;6331512;22;19987;-75
2024/04/26 09:46:49;;;;;;;0.00;0.00;;;;;;;21.42;38.99;99089.69;6330956;22;20015;-75
2024/04/26 09:49:15;;;;;;;0.00;0.00;;;;;;;21.94;38.25;99098.50;6334136;22;20017;-75
2024/04/26 09:51:41;;;;;;;0.00;0.00;;;;;;;22.13;37.68;99089.22;6333201;22;19999;-74
2024/04/26 09:54:10;;;;;;;0.00;0.00;;;;;;;22.30;36.70;99083.09;6249973;22;19995;-76
2024/04/26 09:56:40;;;;;;;0.00;0.00;;;;;;;22.66;36.49;99099.47;6297043;22;20010;-75
2024/04/26 09:59:14;;;;;;;0.00;0.00;;;;;;;23.39;35.98;99079.50;6330662;22;20014;-75
2024/04/26 10:01:43;;;;;;;;;;;;;;;24.30;35.16;99092.09;6379262;22;20010;-74
2024/04/26 10:04:08;;;;;;;0.00;0.00;;;;;;;25.04;34.17;99074.03;6373336;22;19942;-75
2024/04/26 10:06:41;;;;;;;0.00;0.00;;;;;;;26.49;32.25;99097.09;6334198;22;20000;-74
2024/04/26 10:09:12;;;;;;;0.00;0.00;;;;;;;28.35;29.03;99093.31;6290784;22;20091;-74
2024/04/26 10:11:51;;;;;;;0.00;0.00;;;;;;;29.20;26.97;99089.78;6334421;22;20003;-74
2024/04/26 10:14:26;;;;;;;0.00;0.00;;;;;;;28.68;27.85;99094.53;6327915;22;19999;-73
2024/04/26 10:16:51;;;;;;;0.00;0.00;;;;;;;27.69;28.65;99098.78;6376746;22;20003;-74
2024/04/26 10:19:17;;;;;;;0.00;0.00;;;;;;;26.86;29.23;99092.94;6329493;22;19999;-76
2024/04/26 10:21:50;;;;;;;0.00;0.00;;;;;;;26.20;28.99;99088.00;6336764;22;20440;-75
2024/04/26 10:24:16;;;;;;;0.00;0.00;;;;;;;25.34;29.73;99060.91;6333629;22;20006;-74
2024/04/26 10:26:51;;;;;;;0.00;0.00;;;;;;;24.68;30.51;99070.34;6292816;22;20003;-76
2024/04/26 10:29:17;;;;;;;0.00;0.00;;;;;;;24.34;31.29;99074.19;6336785;22;20262;-77
2024/04/26 10:31:44;;;;;;;0.00;0.00;;;;;;;24.31;31.58;99072.19;6337754;22;20000;-77
2024/04/26 10:34:19;;;;;;;0.00;0.00;;;;;;;23.99;31.80;99077.56;6298443;22;19999;-77
2024/04/26 10:36:46;;;;;;;0.00;0.00;;;;;;;23.66;32.02;99077.34;6333678;22;20435;-76
2024/04/26 10:39:28;;;;;;;0.00;0.00;;;;;;;23.21;32.04;99073.00;6337087;22;20565;-76
2024/04/26 10:41:57;;;;;;;0.00;0.00;;;;;;;22.96;32.66;99076.31;6335826;22;20486;-78
2024/04/26 10:44:25;;;;;;;0.00;0.00;;;;;;;22.66;32.77;99083.56;6338120;22;20007;-76
2024/04/26 10:47:00;;;;;;;0.00;0.00;;;;;;;22.44;33.17;99076.94;6376568;22;19987;-75
2024/04/26 10:49:26;;;;;;;0.00;0.00;;;;;;;22.70;33.00;99071.66;6337677;22;19999;-76
2024/04/26 10:52:03;;;;;;;0.00;0.00;;;;;;;23.02;31.81;99083.13;6336848;22;20031;-77
2024/04/26 10:54:34;;;;;;;0.00;0.00;;;;;;;22.54;32.33;99083.00;6380777;22;20507;-76
2024/04/26 10:57:00;;;;;;;0.00;0.00;;;;;;;22.18;32.17;99086.13;6333667;22;20003;-74
2024/04/26 10:59:26;;;;;;;0.00;0.00;;;;;;;21.93;32.50;99080.19;6254376;22;20003;-76
2024/04/26 11:01:59;;;;;;;0.00;0.00;;;;;;;21.40;32.53;99069.81;6332662;22;19995;-75
2024/04/26 11:04:27;;;;;;;0.00;0.00;;;;;;;21.34;33.01;99077.66;6293899;22;19995;-75
2024/04/26 11:06:52;;;;;;;0.00;0.00;;;;;;;21.60;32.75;99084.47;6334594;22;20302;-76
2024/04/26 11:09:19;;;;;;;0.00;0.00;;;;;;;21.73;32.33;99082.28;6377866;22;20003;-76
2024/04/26 11:11:47;;;;;;;0.00;0.00;;;;;;;21.81;32.30;99074.84;6378476;22;20003;-75
2024/04/26 11:14:13;;;;;;;0.00;0.00;;;;;;;21.94;32.19;99076.22;6337788;22;20007;-75
2024/04/26 11:16:40;;;;;;;0.00;0.00;;;;;;;21.76;31.99;99073.97;6339878;22;20018;-74
2024/04/26 11:19:07;;;;;;;0.00;0.00;;;;;;;22.09;32.96;99072.47;6341308;22;19999;-76
2024/04/26 11:21:32;;;;;;;0.00;0.00;;;;;;;24.99;29.84;99080.00;6331005;22;20003;-74
2024/04/26 11:23:58;;;;;;;0.00;0.00;;;;;;;24.54;29.27;99077.44;6292982;22;20026;-76
2024/04/26 11:26:23;;;;;;;0.00;0.00;;;;;;;23.35;29.71;99078.69;6255244;22;20004;-75
2024/04/26 11:28:48;;;;;;;0.00;0.00;;;;;;;22.23;30.55;99065.50;6336984;22;20427;-77
2024/04/26 11:31:14;;;;;;;0.00;0.00;;;;;;;21.58;31.83;99072.91;6294488;22;20394;-77
2024/04/26 11:33:39;;;;;;;0.00;0.00;;;;;;;20.71;32.83;99067.81;6293265;22;20054;-76
2024/04/26 11:36:05;;;;;;;0.00;0.00;;;;;;;19.93;33.81;99085.19;6297100;22;20014;-75
2024/04/26 11:38:30;;;;;;;0.00;0.00;;;;;;;19.08;34.31;99073.59;6334165;22;20307;-76
2024/04/26 11:40:59;;;;;;;0.00;0.00;;;;;;;18.10;35.12;99059.81;6332458;22;20423;-76
2024/04/26 11:43:24;;;;;;;0.00;0.00;;;;;;;17.89;36.08;99081.28;6295641;22;20003;-75
2024/04/26 11:45:50;;;;;;;0.00;0.00;;;;;;;17.40;36.65;99066.31;6331376;22;20079;-77
2024/04/26 11:48:17;;;;;;;0.00;0.00;;;;;;;17.17;37.03;99074.25;6380137;22;20071;-77